createdAt,value
2019-05-15T00:03:13.244Z,8.40
2019-05-15T00:06:01.245Z,8.40
2019-05-15T00:08:49.481Z,8.40
2019-05-15T00:11:39.007Z,8.40
2019-05-15T00:14:28.795Z,8.40
2019-05-15T00:17:19.149Z,8.40
2019-05-15T00:20:09.628Z,8.50
2019-05-15T00:22:58.792Z,8.50
2019-05-15T00:25:48.729Z,8.50
2019-05-15T00:28:38.642Z,8.50
2019-05-15T00:31:26.138Z,8.50
2019-05-15T00:34:14.109Z,8.40
2019-05-15T00:37:02.061Z,8.40
2019-05-15T00:39:49.989Z,8.40
2019-05-15T00:42:38.678Z,8.40
2019-05-15T00:48:29.189Z,8.40
2019-05-15T00:51:10.531Z,8.40
2019-05-15T00:53:51.605Z,8.30
2019-05-15T00:56:20.155Z,8.30
2019-05-15T00:58:49.826Z,8.30
2019-05-15T01:01:19.450Z,8.30
2019-05-15T01:03:49.349Z,8.30
2019-05-15T01:06:19.117Z,8.30
2019-05-15T01:08:48.252Z,8.30
2019-05-15T01:11:19.023Z,8.30
2019-05-15T01:14:11.840Z,8.30
2019-05-15T01:19:49.927Z,8.30
2019-05-15T01:22:39.317Z,8.20
2019-05-15T01:25:28.013Z,8.20
2019-05-15T01:28:18.347Z,8.20
2019-05-15T01:31:08.601Z,8.20
2019-05-15T01:33:58.370Z,8.20
2019-05-15T01:36:48.695Z,8.10
2019-05-15T01:39:35.720Z,8.00
2019-05-15T01:42:24.032Z,8.00
2019-05-15T01:45:12.463Z,8.00
2019-05-15T01:48:00.621Z,8.00
2019-05-15T01:50:49.352Z,8.00
2019-05-15T01:53:38.618Z,8.00
2019-05-15T01:56:29.300Z,8.00
2019-05-15T01:59:18.920Z,7.90
2019-05-15T02:02:09.488Z,7.90
2019-05-15T02:04:59.062Z,7.80
2019-05-15T02:07:47.903Z,7.80
2019-05-15T02:10:38.791Z,7.80
2019-05-15T02:13:28.172Z,7.70
2019-05-15T02:16:15.833Z,7.70
2019-05-15T02:19:03.789Z,7.60
2019-05-15T02:24:59.185Z,7.60
2019-05-15T02:27:48.214Z,7.50
2019-05-15T02:30:39.667Z,7.50
2019-05-15T02:33:25.756Z,7.40
2019-05-15T02:36:13.778Z,7.40
2019-05-15T02:39:01.740Z,7.30
2019-05-15T02:41:49.709Z,7.30
2019-05-15T02:44:40.063Z,7.30
2019-05-15T02:47:29.102Z,7.30
2019-05-15T02:50:10.772Z,7.20
2019-05-15T02:52:51.978Z,7.20
2019-05-15T02:55:33.799Z,7.20
2019-05-15T02:58:14.127Z,7.10
2019-05-15T03:00:55.263Z,7.10
2019-05-15T03:03:38.380Z,7.10
2019-05-15T03:06:19.241Z,7.10
2019-05-15T03:09:00.193Z,7.10
2019-05-15T03:11:29.435Z,7.10
2019-05-15T03:14:21.161Z,6.90
2019-05-15T03:20:00.475Z,6.70
2019-05-15T03:22:41.447Z,6.60
2019-05-15T03:25:22.265Z,6.50
2019-05-15T03:28:03.656Z,6.40
2019-05-15T03:31:12.198Z,6.40
2019-05-15T03:33:34.863Z,6.40
2019-05-15T03:36:13.077Z,6.40
2019-05-15T03:38:52.400Z,6.40
2019-05-15T03:41:33.358Z,6.40
2019-05-15T03:44:13.871Z,6.30
2019-05-15T03:46:54.940Z,6.30
2019-05-15T03:49:35.842Z,6.30
2019-05-15T03:52:19.170Z,6.30
2019-05-15T03:54:59.323Z,6.30
2019-05-15T03:57:43.132Z,6.20
2019-05-15T04:00:24.204Z,6.20
2019-05-15T04:03:05.077Z,6.30
2019-05-15T04:05:45.490Z,6.70
2019-05-15T04:08:26.177Z,7.60
2019-05-15T04:11:09.142Z,8.50
2019-05-15T04:13:50.168Z,9.50
2019-05-15T04:16:31.202Z,10.30
2019-05-15T04:19:11.740Z,11.20
2019-05-15T04:21:52.754Z,11.80
2019-05-15T04:24:33.664Z,12.50
2019-05-15T04:27:14.270Z,13.00
2019-05-15T04:29:54.950Z,13.40
2019-05-15T04:32:39.535Z,13.80
2019-05-15T04:35:19.739Z,14.40
2019-05-15T04:38:01.465Z,14.70
2019-05-15T04:40:42.087Z,15.10
2019-05-15T04:43:22.716Z,15.10
2019-05-15T04:46:03.548Z,15.00
2019-05-15T04:48:32.511Z,14.80
2019-05-15T04:51:01.096Z,15.10
2019-05-15T04:53:33.098Z,15.40
2019-05-15T04:56:00.934Z,15.70
2019-05-15T04:58:29.890Z,15.90
2019-05-15T05:00:59.942Z,16.40
2019-05-15T05:03:29.604Z,17.20
2019-05-15T05:05:59.294Z,16.70
2019-05-15T05:08:29.162Z,15.90
2019-05-15T05:11:19.764Z,15.10
2019-05-15T05:14:08.553Z,14.90
2019-05-15T05:16:59.148Z,15.40
2019-05-15T05:19:47.882Z,15.50
2019-05-15T05:22:35.729Z,15.00
2019-05-15T05:25:23.698Z,14.20
2019-05-15T05:28:11.629Z,14.20
2019-05-15T05:30:59.597Z,14.20
2019-05-15T05:33:48.641Z,14.10
2019-05-15T05:36:38.661Z,13.70
2019-05-15T05:39:29.256Z,13.40
2019-05-15T05:42:18.514Z,13.00
2019-05-15T05:48:08.696Z,12.80
2019-05-15T05:50:58.247Z,12.70
2019-05-15T05:53:38.593Z,12.60
2019-05-15T05:56:19.054Z,12.40
2019-05-15T05:58:59.594Z,12.40
2019-05-15T06:01:43.974Z,12.30
2019-05-15T06:04:22.753Z,12.30
2019-05-15T06:07:09.446Z,12.40
2019-05-15T06:09:48.484Z,12.60
2019-05-15T06:12:28.328Z,12.80
2019-05-15T06:15:09.294Z,12.90
2019-05-15T06:17:50.646Z,13.00
2019-05-15T06:20:31.719Z,13.10
2019-05-15T06:23:13.616Z,13.10
2019-05-15T06:25:54.525Z,13.20
2019-05-15T06:28:35.225Z,13.10
2019-05-15T06:31:15.938Z,13.10
2019-05-15T06:33:58.109Z,13.10
2019-05-15T06:36:28.936Z,13.10
2019-05-15T06:38:59.069Z,13.10
2019-05-15T06:41:28.619Z,13.10
2019-05-15T06:43:58.888Z,13.20
2019-05-15T06:46:28.203Z,13.10
2019-05-15T06:48:58.082Z,13.20
2019-05-15T06:51:28.839Z,13.30
2019-05-15T06:53:58.351Z,13.50
2019-05-15T06:56:28.210Z,13.80
2019-05-15T06:58:58.154Z,14.10
2019-05-15T07:01:29.284Z,14.30
2019-05-15T07:03:58.978Z,14.90
2019-05-15T07:06:28.725Z,15.80
2019-05-15T07:08:58.583Z,16.80
2019-05-15T07:11:28.202Z,17.50
2019-05-15T07:17:10.003Z,18.20
2019-05-15T07:19:59.296Z,17.80
2019-05-15T07:22:49.074Z,17.60
2019-05-15T07:25:39.019Z,17.40
2019-05-15T07:28:28.879Z,17.40
2019-05-15T07:31:18.014Z,17.60
2019-05-15T07:34:08.158Z,17.60
2019-05-15T07:36:55.655Z,17.70
2019-05-15T07:39:24.213Z,17.80
2019-05-15T07:41:53.092Z,18.00
2019-05-15T07:44:21.706Z,18.20
2019-05-15T07:46:50.611Z,18.40
2019-05-15T07:49:38.985Z,18.40
2019-05-15T07:52:28.856Z,18.30
2019-05-15T07:55:10.834Z,18.40
2019-05-15T07:57:51.577Z,18.60
2019-05-15T08:00:32.277Z,18.30
2019-05-15T08:03:13.000Z,18.00
2019-05-15T08:05:59.256Z,18.20
2019-05-15T08:08:39.015Z,18.00
2019-05-15T08:11:24.453Z,17.70
2019-05-15T08:14:03.780Z,17.60
2019-05-15T08:16:44.853Z,17.70
2019-05-15T08:19:13.452Z,17.80
2019-05-15T08:21:42.058Z,18.20
2019-05-15T08:24:10.711Z,18.70
2019-05-15T08:26:44.826Z,19.10
2019-05-15T08:29:10.234Z,19.20
2019-05-15T08:31:39.114Z,19.40
2019-05-15T08:34:15.267Z,19.50
2019-05-15T08:36:38.610Z,19.00
2019-05-15T08:39:28.441Z,18.50
2019-05-15T08:42:28.179Z,17.90
2019-05-15T08:45:28.255Z,17.70
2019-05-15T08:48:18.246Z,18.00
2019-05-15T08:51:05.746Z,18.20
2019-05-15T08:53:48.664Z,18.10
2019-05-15T08:56:29.062Z,18.10
2019-05-15T08:59:10.406Z,18.10
2019-05-15T09:01:51.683Z,18.50
2019-05-15T09:04:34.961Z,18.70
2019-05-15T09:07:18.096Z,18.70
2019-05-15T09:09:58.537Z,18.40
2019-05-15T09:12:39.496Z,18.20
2019-05-15T09:15:19.949Z,18.20
2019-05-15T09:18:14.703Z,18.10
2019-05-15T09:20:43.291Z,18.10
2019-05-15T09:23:11.949Z,18.20
2019-05-15T09:25:59.911Z,18.40
2019-05-15T09:28:49.358Z,18.50
2019-05-15T09:34:46.873Z,18.40
2019-05-15T09:37:20.473Z,18.60
2019-05-15T09:40:09.188Z,18.50
2019-05-15T09:42:58.567Z,18.40
2019-05-15T09:46:09.743Z,18.20
2019-05-15T09:48:55.856Z,18.20
2019-05-15T09:51:43.863Z,18.60
2019-05-15T09:54:12.447Z,18.40
2019-05-15T09:56:41.107Z,17.80
2019-05-15T09:59:09.803Z,17.90
2019-05-15T10:01:39.459Z,18.20
2019-05-15T10:04:08.443Z,18.20
2019-05-15T10:06:39.110Z,18.20
2019-05-15T10:09:09.107Z,18.60
2019-05-15T10:14:50.712Z,18.50
2019-05-15T10:17:38.649Z,17.80
2019-05-15T10:20:28.979Z,17.30
2019-05-15T10:23:19.104Z,17.00
2019-05-15T10:26:19.171Z,17.10
2019-05-15T10:32:02.826Z,17.50
2019-05-15T10:34:50.759Z,18.00
2019-05-15T10:37:39.069Z,18.10
2019-05-15T10:40:29.752Z,18.10
2019-05-15T10:43:20.698Z,17.90
2019-05-15T10:46:13.059Z,18.00
2019-05-15T10:51:45.605Z,17.50
2019-05-15T10:54:14.203Z,17.60
2019-05-15T10:56:55.059Z,17.80
2019-05-15T10:59:35.944Z,17.90
2019-05-15T11:02:19.243Z,17.80
2019-05-15T11:04:59.315Z,17.60
2019-05-15T11:07:40.392Z,17.20
2019-05-15T11:10:21.646Z,16.80
2019-05-15T11:13:02.658Z,16.30
2019-05-15T11:15:43.716Z,16.10
2019-05-15T11:18:24.419Z,16.20
2019-05-15T11:21:05.243Z,16.70
2019-05-15T11:23:45.791Z,17.10
2019-05-15T11:26:33.144Z,17.40
2019-05-15T11:29:09.847Z,17.50
2019-05-15T11:31:51.551Z,17.30
2019-05-15T11:34:33.066Z,17.00
2019-05-15T11:37:13.606Z,16.70
2019-05-15T11:39:53.954Z,16.90
2019-05-15T11:42:34.458Z,17.00
2019-05-15T11:45:15.481Z,16.80
2019-05-15T11:47:55.930Z,16.50
2019-05-15T11:50:39.891Z,16.40
2019-05-15T11:53:19.476Z,16.50
2019-05-15T11:56:00.195Z,16.80
2019-05-15T11:58:40.981Z,17.10
2019-05-15T12:01:21.586Z,17.10
2019-05-15T12:04:02.071Z,17.10
2019-05-15T12:06:57.988Z,17.10
2019-05-15T12:09:28.077Z,16.90
2019-05-15T12:12:08.799Z,16.80
2019-05-15T12:14:38.912Z,16.50
2019-05-15T12:17:14.967Z,16.50
2019-05-15T12:19:39.273Z,16.60
2019-05-15T12:22:07.874Z,16.80
2019-05-15T12:24:56.202Z,16.80
2019-05-15T12:27:44.153Z,16.60
2019-05-15T12:30:32.158Z,16.10
2019-05-15T12:33:20.425Z,15.90
2019-05-15T12:36:10.701Z,15.70
2019-05-15T12:38:58.049Z,15.90
2019-05-15T13:04:28.532Z,16.30
2019-05-15T13:07:19.894Z,16.40
2019-05-15T13:10:08.707Z,16.60
2019-05-15T13:13:02.355Z,16.50
2019-05-15T13:15:48.235Z,16.40
2019-05-15T13:18:38.611Z,16.20
2019-05-15T13:21:26.150Z,15.90
2019-05-15T13:24:14.099Z,15.70
2019-05-15T13:27:02.064Z,15.80
2019-05-15T13:29:50.010Z,16.00
2019-05-15T13:32:40.670Z,16.20
2019-05-15T13:35:09.809Z,16.30
2019-05-15T13:37:39.287Z,16.30
2019-05-15T13:40:08.357Z,16.30
2019-05-15T13:42:39.009Z,16.10
2019-05-15T13:45:12.854Z,16.00
2019-05-15T13:47:38.958Z,16.00
2019-05-15T13:50:08.074Z,16.00
2019-05-15T13:52:39.084Z,16.00
2019-05-15T13:55:33.151Z,15.90
2019-05-15T13:58:08.898Z,15.80
2019-05-15T14:00:49.969Z,15.60
2019-05-15T14:03:31.279Z,15.50
2019-05-15T14:06:11.941Z,15.40
2019-05-15T14:08:53.345Z,15.60
2019-05-15T14:11:34.777Z,15.90
2019-05-15T14:14:15.215Z,16.00
2019-05-15T14:16:59.075Z,15.90
2019-05-15T14:19:39.331Z,15.90
2019-05-15T14:22:19.719Z,16.00
2019-05-15T14:25:00.657Z,15.90
2019-05-15T14:27:41.389Z,16.00
2019-05-15T14:30:22.186Z,16.10
2019-05-15T14:33:02.851Z,16.00
2019-05-15T14:35:43.857Z,15.60
2019-05-15T14:38:24.466Z,15.40
2019-05-15T14:41:05.961Z,15.30
2019-05-15T14:43:48.448Z,15.30
2019-05-15T14:46:28.881Z,15.40
2019-05-15T14:49:09.906Z,15.60
2019-05-15T14:52:04.560Z,15.60
2019-05-15T14:54:33.362Z,15.50
2019-05-15T14:57:14.170Z,15.40
2019-05-15T14:59:57.880Z,15.40
2019-05-15T15:02:39.088Z,15.30
2019-05-15T15:05:22.503Z,15.40
2019-05-15T15:08:17.134Z,15.50
2019-05-15T15:10:33.363Z,15.40
2019-05-15T15:13:01.959Z,15.30
2019-05-15T15:15:31.046Z,15.30
2019-05-15T15:17:59.927Z,15.20
2019-05-15T15:20:28.673Z,15.20
2019-05-15T15:23:16.705Z,15.30
2019-05-15T15:26:04.702Z,15.40
2019-05-15T15:28:52.666Z,15.60
2019-05-15T15:31:40.598Z,15.50
2019-05-15T15:34:30.202Z,15.50
2019-05-15T15:37:18.169Z,15.40
2019-05-15T15:43:13.745Z,15.30
2019-05-15T15:46:03.314Z,15.50
2019-05-15T15:48:51.299Z,15.40
2019-05-15T15:51:39.494Z,15.20
2019-05-15T15:57:13.187Z,15.10
2019-05-15T15:59:54.361Z,14.90
2019-05-15T16:02:35.942Z,14.60
2019-05-15T16:05:08.119Z,14.50
2019-05-15T16:07:37.949Z,14.40
2019-05-15T16:10:08.329Z,14.30
2019-05-15T16:12:58.262Z,14.10
2019-05-15T16:15:48.622Z,14.10
2019-05-15T16:18:38.390Z,14.00
2019-05-15T16:21:28.795Z,13.90
2019-05-15T16:24:20.761Z,13.80
2019-05-15T16:27:18.297Z,13.90
2019-05-15T16:29:55.867Z,13.90
2019-05-15T16:32:24.449Z,13.90
2019-05-15T16:34:53.075Z,13.80
2019-05-15T16:37:21.664Z,13.80
2019-05-15T16:39:50.289Z,13.90
2019-05-15T16:42:18.939Z,13.90
2019-05-15T16:44:48.959Z,14.00
2019-05-15T16:47:18.548Z,13.90
2019-05-15T16:50:28.618Z,13.80
2019-05-15T16:53:18.250Z,13.80
2019-05-15T16:56:18.902Z,13.80
2019-05-15T16:58:48.998Z,13.80
2019-05-15T17:01:30.131Z,13.90
2019-05-15T17:04:11.103Z,13.80
2019-05-15T17:06:52.348Z,13.90
2019-05-15T17:09:33.202Z,13.80
2019-05-15T17:12:14.149Z,13.90
2019-05-15T17:14:42.910Z,13.90
2019-05-15T17:17:11.561Z,13.90
2019-05-15T17:19:40.185Z,13.70
2019-05-15T17:22:09.569Z,13.50
2019-05-15T17:24:58.287Z,13.30
2019-05-15T17:27:47.136Z,13.20
2019-05-15T17:30:35.526Z,13.20
2019-05-15T17:33:23.482Z,13.30
2019-05-15T17:36:11.437Z,13.20
2019-05-15T17:38:59.798Z,13.10
2019-05-15T17:41:48.258Z,13.10
2019-05-15T17:44:38.180Z,13.00
2019-05-15T17:47:28.567Z,13.00
2019-05-15T17:50:18.894Z,12.90
2019-05-15T17:53:06.173Z,12.80
2019-05-15T17:55:35.143Z,12.80
2019-05-15T17:58:05.085Z,12.70
2019-05-15T18:00:33.935Z,12.80
2019-05-15T18:03:02.555Z,12.70
2019-05-15T18:05:31.215Z,12.60
2019-05-15T18:07:59.816Z,12.60
2019-05-15T18:10:28.806Z,12.60
2019-05-15T18:13:16.729Z,12.60
2019-05-15T18:16:04.845Z,12.60
2019-05-15T18:19:05.147Z,12.50
2019-05-15T18:21:42.862Z,12.50
2019-05-15T18:24:30.837Z,12.60
2019-05-15T18:27:18.767Z,12.50
2019-05-15T18:30:09.178Z,12.50
2019-05-15T18:32:58.749Z,12.40
2019-05-15T18:35:48.509Z,12.40
2019-05-15T18:38:38.618Z,12.30
2019-05-15T18:41:28.359Z,12.20
2019-05-15T18:43:57.884Z,12.20
2019-05-15T18:46:28.820Z,12.20
2019-05-15T18:48:57.946Z,12.10
2019-05-15T18:51:28.013Z,12.10
2019-05-15T18:54:16.065Z,12.10
2019-05-15T18:57:04.445Z,12.10
2019-05-15T18:59:45.663Z,12.00
2019-05-15T19:02:28.111Z,12.00
2019-05-15T19:05:08.845Z,11.90
2019-05-15T19:07:49.405Z,11.80
2019-05-15T19:10:30.101Z,11.80
2019-05-15T19:13:11.018Z,11.80
2019-05-15T19:15:52.484Z,11.80
2019-05-15T19:18:33.265Z,11.70
2019-05-15T19:21:14.042Z,11.70
2019-05-15T19:23:55.066Z,11.70
2019-05-15T19:26:35.705Z,11.60
2019-05-15T19:29:17.965Z,11.60
2019-05-15T19:31:59.454Z,11.50
2019-05-15T19:34:40.240Z,11.50
2019-05-15T19:37:21.474Z,11.50
2019-05-15T19:40:02.401Z,11.40
2019-05-15T19:42:43.304Z,11.40
2019-05-15T19:45:24.505Z,11.40
2019-05-15T19:47:53.467Z,11.30
2019-05-15T19:50:22.395Z,11.30
2019-05-15T19:52:51.084Z,11.30
2019-05-15T19:55:21.131Z,11.30
2019-05-15T19:57:49.880Z,11.30
2019-05-15T20:03:29.815Z,11.30
2019-05-15T20:06:10.459Z,11.40
2019-05-15T20:08:51.723Z,11.30
2019-05-15T20:11:33.195Z,11.20
2019-05-15T20:14:14.939Z,11.20
2019-05-15T20:16:55.844Z,11.20
2019-05-15T20:22:20.135Z,11.10
2019-05-15T20:25:01.319Z,11.10
2019-05-15T20:27:30.343Z,11.10
2019-05-15T20:30:18.481Z,11.10
2019-05-15T20:38:53.270Z,11.10
2019-05-15T20:41:42.835Z,11.00
2019-05-15T20:44:30.940Z,11.00
2019-05-15T20:47:18.943Z,11.00
2019-05-15T20:50:09.414Z,11.00
2019-05-15T20:52:58.815Z,11.00
2019-05-15T20:55:48.454Z,10.90
2019-05-15T20:58:38.345Z,10.70
2019-05-15T21:01:19.293Z,10.90
2019-05-15T21:04:00.058Z,10.90
2019-05-15T21:06:41.624Z,10.80
2019-05-15T21:09:22.151Z,10.80
2019-05-15T21:12:03.445Z,10.70
2019-05-15T21:14:44.109Z,10.70
2019-05-15T21:17:25.129Z,10.70
2019-05-15T21:20:09.043Z,10.70
2019-05-15T21:22:49.441Z,10.70
2019-05-15T21:25:30.346Z,10.70
2019-05-15T21:28:11.351Z,10.70
2019-05-15T21:30:51.957Z,10.70
2019-05-15T21:33:32.802Z,10.60
2019-05-15T21:36:13.993Z,10.60
2019-05-15T21:38:55.089Z,10.60
2019-05-15T21:41:35.590Z,10.60
2019-05-15T21:44:16.101Z,10.50
2019-05-15T21:46:58.699Z,10.50
2019-05-15T21:49:39.765Z,10.40
2019-05-15T21:52:20.834Z,10.40
2019-05-15T21:55:02.199Z,10.50
2019-05-15T21:57:43.567Z,10.40
2019-05-15T22:00:28.704Z,10.40
2019-05-15T22:03:09.077Z,10.30
2019-05-15T22:05:38.476Z,10.40
2019-05-15T22:08:07.838Z,10.30
2019-05-15T22:10:38.821Z,10.30
2019-05-15T22:13:07.212Z,10.30
2019-05-15T22:15:35.978Z,10.20
2019-05-15T22:18:05.138Z,10.20
2019-05-15T22:20:33.893Z,10.30
2019-05-15T22:23:02.556Z,10.30
2019-05-15T22:25:31.532Z,10.20
2019-05-15T22:28:00.502Z,10.20
2019-05-15T22:30:30.333Z,10.20
2019-05-15T22:32:59.076Z,10.10
2019-05-15T22:35:48.842Z,10.10
2019-05-15T22:38:36.620Z,10.10
2019-05-15T22:41:24.589Z,10.10
2019-05-15T22:44:12.602Z,10.10
2019-05-15T22:47:00.567Z,10.10
2019-05-15T22:49:48.562Z,10.20
2019-05-15T22:52:38.967Z,10.20
2019-05-15T22:55:28.652Z,10.20
2019-05-15T22:58:15.828Z,10.20
2019-05-15T23:01:03.877Z,10.20
2019-05-15T23:03:52.109Z,10.10
2019-05-15T23:06:40.454Z,10.10
2019-05-15T23:09:28.538Z,10.20
2019-05-15T23:12:18.261Z,10.20
2019-05-15T23:15:08.752Z,10.10
2019-05-15T23:17:58.195Z,10.10
2019-05-15T23:20:47.907Z,10.00
2019-05-15T23:23:38.021Z,10.00
2019-05-15T23:26:28.285Z,9.90
2019-05-15T23:29:16.299Z,9.90
2019-05-15T23:32:04.221Z,9.90
2019-05-15T23:34:33.136Z,9.80
2019-05-15T23:37:01.917Z,9.90
2019-05-15T23:39:30.539Z,9.80
2019-05-15T23:41:59.130Z,9.80
2019-05-15T23:44:28.052Z,9.80
2019-05-15T23:46:56.631Z,9.80
2019-05-15T23:49:27.721Z,9.80
2019-05-15T23:52:14.808Z,9.80
2019-05-15T23:55:02.842Z,9.80
2019-05-15T23:57:50.770Z,9.80
